sensor_id;sensor_type;location;lat;lon;timestamp;temperature;humidity
35970;DHT22;22448;51.298;6.430;2022-07-06T00:00:07;12.70;99.90
35970;DHT22;22448;51.298;6.430;2022-07-06T00:02:34;12.60;99.90
35970;DHT22;22448;51.298;6.430;2022-07-06T00:05:01;12.60;99.90
35970;DHT22;22448;51.298;6.430;2022-07-06T00:07:28;12.60;99.90
35970;DHT22;22448;51.298;6.430;2022-07-06T00:09:55;12.50;99.90
35970;DHT22;22448;51.298;6.430;2022-07-06T00:12:22;12.50;99.90
35970;DHT22;22448;51.298;6.430;2022-07-06T00:14:49;12.40;99.90
35970;DHT22;22448;51.298;6.430;2022-07-06T00:17:16;12.40;99.90
35970;DHT22;22448;51.298;6.430;2022-07-06T00:19:43;12.40;99.90
35970;DHT22;22448;51.298;6.430;2022-07-06T00:22:10;12.30;99.90
35970;DHT22;22448;51.298;6.430;2022-07-06T00:24:37;12.30;99.90
35970;DHT22;22448;51.298;6.430;2022-07-06T00:27:04;12.30;99.90
35970;DHT22;22448;51.298;6.430;2022-07-06T00:29:31;12.20;99.90
35970;DHT22;22448;51.298;6.430;2022-07-06T00:31:59;12.20;99.90
35970;DHT22;22448;51.298;6.430;2022-07-06T00:34:26;12.20;99.90
35970;DHT22;22448;51.298;6.430;2022-07-06T00:36:54;12.10;99.90
35970;DHT22;22448;51.298;6.430;2022-07-06T00:39:20;12.10;99.90
35970;DHT22;22448;51.298;6.430;2022-07-06T00:41:48;12.00;99.90
35970;DHT22;22448;51.298;6.430;2022-07-06T00:44:15;12.00;99.90
35970;DHT22;22448;51.298;6.430;2022-07-06T00:46:42;12.00;99.90
35970;DHT22;22448;51.298;6.430;2022-07-06T00:49:09;12.00;99.90
35970;DHT22;22448;51.298;6.430;2022-07-06T00:51:57;11.90;99.90
35970;DHT22;22448;51.298;6.430;2022-07-06T00:54:26;11.90;99.90
35970;DHT22;22448;51.298;6.430;2022-07-06T00:56:57;11.80;99.90
35970;DHT22;22448;51.298;6.430;2022-07-06T00:59:25;11.80;99.90
35970;DHT22;22448;51.298;6.430;2022-07-06T01:01:53;11.80;99.90
35970;DHT22;22448;51.298;6.430;2022-07-06T01:04:20;11.80;99.90
35970;DHT22;22448;51.298;6.430;2022-07-06T01:06:47;11.80;99.90
35970;DHT22;22448;51.298;6.430;2022-07-06T01:09:14;11.80;99.90
35970;DHT22;22448;51.298;6.430;2022-07-06T01:11:43;11.70;99.90
35970;DHT22;22448;51.298;6.430;2022-07-06T01:14:12;11.70;99.90
35970;DHT22;22448;51.298;6.430;2022-07-06T01:16:39;11.70;99.90
35970;DHT22;22448;51.298;6.430;2022-07-06T01:19:06;11.70;99.90
35970;DHT22;22448;51.298;6.430;2022-07-06T01:21:33;11.70;99.90
35970;DHT22;22448;51.298;6.430;2022-07-06T01:24:00;11.60;99.90
35970;DHT22;22448;51.298;6.430;2022-07-06T01:26:27;11.60;99.90
35970;DHT22;22448;51.298;6.430;2022-07-06T01:28:54;11.60;99.90
35970;DHT22;22448;51.298;6.430;2022-07-06T01:31:26;11.60;99.90
35970;DHT22;22448;51.298;6.430;2022-07-06T01:33:55;11.60;99.90
35970;DHT22;22448;51.298;6.430;2022-07-06T01:36:23;11.50;99.90
35970;DHT22;22448;51.298;6.430;2022-07-06T01:38:52;11.50;99.90
35970;DHT22;22448;51.298;6.430;2022-07-06T01:41:20;11.50;99.90
35970;DHT22;22448;51.298;6.430;2022-07-06T01:43:47;11.50;99.90
35970;DHT22;22448;51.298;6.430;2022-07-06T01:46:15;11.40;99.90
35970;DHT22;22448;51.298;6.430;2022-07-06T01:48:43;11.40;99.90
35970;DHT22;22448;51.298;6.430;2022-07-06T01:51:10;11.40;99.90
35970;DHT22;22448;51.298;6.430;2022-07-06T01:53:39;11.40;99.90
35970;DHT22;22448;51.298;6.430;2022-07-06T01:56:08;11.30;99.90
35970;DHT22;22448;51.298;6.430;2022-07-06T01:58:35;11.30;99.90
35970;DHT22;22448;51.298;6.430;2022-07-06T02:01:14;11.30;99.90
35970;DHT22;22448;51.298;6.430;2022-07-06T02:03:43;11.20;99.90
35970;DHT22;22448;51.298;6.430;2022-07-06T02:06:11;11.20;99.90
35970;DHT22;22448;51.298;6.430;2022-07-06T02:08:42;11.20;99.90
35970;DHT22;22448;51.298;6.430;2022-07-06T02:11:09;11.20;99.90
35970;DHT22;22448;51.298;6.430;2022-07-06T02:13:39;11.20;99.90
35970;DHT22;22448;51.298;6.430;2022-07-06T02:16:09;11.10;99.90
35970;DHT22;22448;51.298;6.430;2022-07-06T02:18:36;11.10;99.90
35970;DHT22;22448;51.298;6.430;2022-07-06T02:21:04;11.10;99.90
35970;DHT22;22448;51.298;6.430;2022-07-06T02:23:31;11.10;99.90
35970;DHT22;22448;51.298;6.430;2022-07-06T02:25:59;11.10;99.90
35970;DHT22;22448;51.298;6.430;2022-07-06T02:28:26;11.20;99.90
35970;DHT22;22448;51.298;6.430;2022-07-06T02:30:54;11.20;99.90
35970;DHT22;22448;51.298;6.430;2022-07-06T02:33:22;11.20;99.90
35970;DHT22;22448;51.298;6.430;2022-07-06T02:35:49;11.20;99.90
35970;DHT22;22448;51.298;6.430;2022-07-06T02:38:16;11.20;99.90
35970;DHT22;22448;51.298;6.430;2022-07-06T02:40:43;11.10;99.90
35970;DHT22;22448;51.298;6.430;2022-07-06T02:43:11;11.10;99.90
35970;DHT22;22448;51.298;6.430;2022-07-06T02:45:40;11.10;99.90
35970;DHT22;22448;51.298;6.430;2022-07-06T02:48:08;11.00;99.90
35970;DHT22;22448;51.298;6.430;2022-07-06T02:50:35;10.90;99.90
35970;DHT22;22448;51.298;6.430;2022-07-06T02:53:04;10.80;99.90
35970;DHT22;22448;51.298;6.430;2022-07-06T02:55:31;10.80;99.90
35970;DHT22;22448;51.298;6.430;2022-07-06T02:57:59;10.80;99.90
35970;DHT22;22448;51.298;6.430;2022-07-06T03:00:26;10.80;99.90
35970;DHT22;22448;51.298;6.430;2022-07-06T03:02:54;10.80;99.90
35970;DHT22;22448;51.298;6.430;2022-07-06T03:05:22;10.70;99.90
35970;DHT22;22448;51.298;6.430;2022-07-06T03:07:49;10.70;99.90
35970;DHT22;22448;51.298;6.430;2022-07-06T03:10:16;10.70;99.90
35970;DHT22;22448;51.298;6.430;2022-07-06T03:12:44;10.70;99.90
35970;DHT22;22448;51.298;6.430;2022-07-06T03:15:11;10.70;99.90
35970;DHT22;22448;51.298;6.430;2022-07-06T03:17:43;10.70;99.90
35970;DHT22;22448;51.298;6.430;2022-07-06T03:20:11;10.80;99.90
35970;DHT22;22448;51.298;6.430;2022-07-06T03:22:42;10.80;99.90
35970;DHT22;22448;51.298;6.430;2022-07-06T03:25:13;10.80;99.90
35970;DHT22;22448;51.298;6.430;2022-07-06T03:27:40;10.80;99.90
35970;DHT22;22448;51.298;6.430;2022-07-06T03:30:09;10.80;99.90
35970;DHT22;22448;51.298;6.430;2022-07-06T03:32:43;10.80;99.90
35970;DHT22;22448;51.298;6.430;2022-07-06T03:35:10;10.80;99.90
35970;DHT22;22448;51.298;6.430;2022-07-06T03:37:37;10.80;99.90
35970;DHT22;22448;51.298;6.430;2022-07-06T03:40:05;10.90;99.90
35970;DHT22;22448;51.298;6.430;2022-07-06T03:42:33;10.90;99.90
35970;DHT22;22448;51.298;6.430;2022-07-06T03:45:00;11.00;99.90
35970;DHT22;22448;51.298;6.430;2022-07-06T03:47:27;11.10;99.90
35970;DHT22;22448;51.298;6.430;2022-07-06T03:49:54;11.10;99.90
35970;DHT22;22448;51.298;6.430;2022-07-06T03:52:22;11.20;99.90
35970;DHT22;22448;51.298;6.430;2022-07-06T03:54:55;11.30;99.90
35970;DHT22;22448;51.298;6.430;2022-07-06T03:57:26;11.30;99.90
35970;DHT22;22448;51.298;6.430;2022-07-06T03:59:56;11.40;99.90
35970;DHT22;22448;51.298;6.430;2022-07-06T04:02:23;11.40;99.90
35970;DHT22;22448;51.298;6.430;2022-07-06T04:04:51;11.30;99.90
35970;DHT22;22448;51.298;6.430;2022-07-06T04:07:18;11.30;99.90
35970;DHT22;22448;51.298;6.430;2022-07-06T04:09:47;11.40;99.90
35970;DHT22;22448;51.298;6.430;2022-07-06T04:12:14;11.30;99.90
35970;DHT22;22448;51.298;6.430;2022-07-06T04:14:43;11.30;99.90
35970;DHT22;22448;51.298;6.430;2022-07-06T04:17:10;11.30;99.90
35970;DHT22;22448;51.298;6.430;2022-07-06T04:19:55;11.30;99.90
35970;DHT22;22448;51.298;6.430;2022-07-06T04:22:22;11.30;99.90
35970;DHT22;22448;51.298;6.430;2022-07-06T04:24:49;11.40;99.90
35970;DHT22;22448;51.298;6.430;2022-07-06T04:27:17;11.40;99.90
35970;DHT22;22448;51.298;6.430;2022-07-06T04:29:44;11.50;99.90
35970;DHT22;22448;51.298;6.430;2022-07-06T04:32:11;11.50;99.90
35970;DHT22;22448;51.298;6.430;2022-07-06T04:34:39;11.50;99.90
35970;DHT22;22448;51.298;6.430;2022-07-06T04:37:06;11.60;99.90
35970;DHT22;22448;51.298;6.430;2022-07-06T04:39:33;11.70;99.90
35970;DHT22;22448;51.298;6.430;2022-07-06T04:42:01;11.70;99.90
35970;DHT22;22448;51.298;6.430;2022-07-06T04:44:28;11.70;99.90
35970;DHT22;22448;51.298;6.430;2022-07-06T04:46:55;11.80;99.90
35970;DHT22;22448;51.298;6.430;2022-07-06T04:49:23;12.00;99.90
35970;DHT22;22448;51.298;6.430;2022-07-06T04:51:50;12.10;99.90
35970;DHT22;22448;51.298;6.430;2022-07-06T04:54:17;12.30;99.90
35970;DHT22;22448;51.298;6.430;2022-07-06T04:56:45;12.50;99.90
35970;DHT22;22448;51.298;6.430;2022-07-06T04:59:14;12.60;99.90
35970;DHT22;22448;51.298;6.430;2022-07-06T05:01:41;12.90;99.90
35970;DHT22;22448;51.298;6.430;2022-07-06T05:04:09;14.30;99.90
35970;DHT22;22448;51.298;6.430;2022-07-06T05:06:37;16.70;99.90
35970;DHT22;22448;51.298;6.430;2022-07-06T05:09:04;17.90;99.90
35970;DHT22;22448;51.298;6.430;2022-07-06T05:11:32;18.60;99.90
35970;DHT22;22448;51.298;6.430;2022-07-06T05:13:59;19.10;99.90
35970;DHT22;22448;51.298;6.430;2022-07-06T05:16:26;19.50;99.90
35970;DHT22;22448;51.298;6.430;2022-07-06T05:18:54;20.80;99.90
35970;DHT22;22448;51.298;6.430;2022-07-06T05:21:21;22.00;98.70
35970;DHT22;22448;51.298;6.430;2022-07-06T05:23:48;22.70;96.50
35970;DHT22;22448;51.298;6.430;2022-07-06T05:26:15;23.00;95.50
35970;DHT22;22448;51.298;6.430;2022-07-06T05:28:43;22.80;94.80
35970;DHT22;22448;51.298;6.430;2022-07-06T05:31:14;24.00;93.40
35970;DHT22;22448;51.298;6.430;2022-07-06T05:33:41;23.30;92.40
35970;DHT22;22448;51.298;6.430;2022-07-06T05:36:09;24.40;92.20
35970;DHT22;22448;51.298;6.430;2022-07-06T05:38:37;24.60;90.70
35970;DHT22;22448;51.298;6.430;2022-07-06T05:41:05;25.60;90.00
35970;DHT22;22448;51.298;6.430;2022-07-06T05:43:36;26.60;87.90
35970;DHT22;22448;51.298;6.430;2022-07-06T05:46:04;27.00;85.40
35970;DHT22;22448;51.298;6.430;2022-07-06T05:48:33;26.40;84.80
35970;DHT22;22448;51.298;6.430;2022-07-06T05:51:19;25.90;85.30
35970;DHT22;22448;51.298;6.430;2022-07-06T05:53:46;25.30;85.70
35970;DHT22;22448;51.298;6.430;2022-07-06T05:56:15;24.60;87.20
35970;DHT22;22448;51.298;6.430;2022-07-06T05:58:42;22.90;90.00
35970;DHT22;22448;51.298;6.430;2022-07-06T06:01:09;21.30;92.00
35970;DHT22;22448;51.298;6.430;2022-07-06T06:03:39;21.70;93.30
35970;DHT22;22448;51.298;6.430;2022-07-06T06:06:06;24.00;91.70
35970;DHT22;22448;51.298;6.430;2022-07-06T06:08:33;25.90;89.00
35970;DHT22;22448;51.298;6.430;2022-07-06T06:11:01;24.60;88.20
35970;DHT22;22448;51.298;6.430;2022-07-06T06:13:37;23.10;90.20
35970;DHT22;22448;51.298;6.430;2022-07-06T06:16:04;22.00;91.90
35970;DHT22;22448;51.298;6.430;2022-07-06T06:18:32;21.20;92.80
35970;DHT22;22448;51.298;6.430;2022-07-06T06:21:07;22.10;93.20
35970;DHT22;22448;51.298;6.430;2022-07-06T06:23:34;22.00;93.10
35970;DHT22;22448;51.298;6.430;2022-07-06T06:26:01;21.40;93.10
35970;DHT22;22448;51.298;6.430;2022-07-06T06:28:28;20.70;94.00
35970;DHT22;22448;51.298;6.430;2022-07-06T06:30:55;20.40;95.30
35970;DHT22;22448;51.298;6.430;2022-07-06T06:33:22;19.80;96.30
35970;DHT22;22448;51.298;6.430;2022-07-06T06:35:53;19.90;96.90
35970;DHT22;22448;51.298;6.430;2022-07-06T06:38:22;20.10;96.60
35970;DHT22;22448;51.298;6.430;2022-07-06T06:40:54;20.00;96.40
35970;DHT22;22448;51.298;6.430;2022-07-06T06:43:22;19.90;96.90
35970;DHT22;22448;51.298;6.430;2022-07-06T06:46:00;21.80;96.50
35970;DHT22;22448;51.298;6.430;2022-07-06T06:48:27;23.80;93.90
35970;DHT22;22448;51.298;6.430;2022-07-06T06:51:02;24.90;91.20
35970;DHT22;22448;51.298;6.430;2022-07-06T06:53:34;26.40;90.00
35970;DHT22;22448;51.298;6.430;2022-07-06T06:56:06;28.00;85.60
35970;DHT22;22448;51.298;6.430;2022-07-06T06:58:33;28.70;82.80
35970;DHT22;22448;51.298;6.430;2022-07-06T07:01:20;29.20;81.00
35970;DHT22;22448;51.298;6.430;2022-07-06T07:03:51;27.40;81.20
35970;DHT22;22448;51.298;6.430;2022-07-06T07:06:25;26.20;82.00
35970;DHT22;22448;51.298;6.430;2022-07-06T07:08:52;26.50;83.70
35970;DHT22;22448;51.298;6.430;2022-07-06T07:11:19;25.90;83.50
35970;DHT22;22448;51.298;6.430;2022-07-06T07:13:51;25.70;84.00
35970;DHT22;22448;51.298;6.430;2022-07-06T07:16:17;25.90;84.60
35970;DHT22;22448;51.298;6.430;2022-07-06T07:18:45;26.20;84.90
35970;DHT22;22448;51.298;6.430;2022-07-06T07:21:12;26.00;83.30
35970;DHT22;22448;51.298;6.430;2022-07-06T07:23:40;24.80;83.90
35970;DHT22;22448;51.298;6.430;2022-07-06T07:26:06;23.90;85.90
35970;DHT22;22448;51.298;6.430;2022-07-06T07:28:40;22.80;88.70
35970;DHT22;22448;51.298;6.430;2022-07-06T07:31:07;21.70;90.30
35970;DHT22;22448;51.298;6.430;2022-07-06T07:33:34;21.80;91.20
35970;DHT22;22448;51.298;6.430;2022-07-06T07:36:01;21.30;91.20
35970;DHT22;22448;51.298;6.430;2022-07-06T07:38:31;22.40;91.00
35970;DHT22;22448;51.298;6.430;2022-07-06T07:40:58;21.40;91.30
35970;DHT22;22448;51.298;6.430;2022-07-06T07:43:25;21.00;91.70
35970;DHT22;22448;51.298;6.430;2022-07-06T07:45:52;20.70;92.20
35970;DHT22;22448;51.298;6.430;2022-07-06T07:48:19;20.70;91.80
35970;DHT22;22448;51.298;6.430;2022-07-06T07:50:47;19.90;93.20
35970;DHT22;22448;51.298;6.430;2022-07-06T07:53:14;19.30;94.40
35970;DHT22;22448;51.298;6.430;2022-07-06T07:55:41;19.00;95.60
35970;DHT22;22448;51.298;6.430;2022-07-06T07:58:09;18.60;95.50
35970;DHT22;22448;51.298;6.430;2022-07-06T08:00:36;18.40;96.40
35970;DHT22;22448;51.298;6.430;2022-07-06T08:03:03;18.10;97.10
35970;DHT22;22448;51.298;6.430;2022-07-06T08:05:31;18.10;98.60
35970;DHT22;22448;51.298;6.430;2022-07-06T08:07:58;18.20;98.30
35970;DHT22;22448;51.298;6.430;2022-07-06T08:10:25;18.20;98.30
35970;DHT22;22448;51.298;6.430;2022-07-06T08:12:52;18.60;98.60
35970;DHT22;22448;51.298;6.430;2022-07-06T08:15:19;18.80;98.10
35970;DHT22;22448;51.298;6.430;2022-07-06T08:17:46;19.50;96.30
35970;DHT22;22448;51.298;6.430;2022-07-06T08:20:14;20.00;95.70
35970;DHT22;22448;51.298;6.430;2022-07-06T08:22:44;19.70;95.80
35970;DHT22;22448;51.298;6.430;2022-07-06T08:25:10;19.40;95.80
35970;DHT22;22448;51.298;6.430;2022-07-06T08:27:38;19.20;95.10
35970;DHT22;22448;51.298;6.430;2022-07-06T08:30:05;19.40;95.00
35970;DHT22;22448;51.298;6.430;2022-07-06T08:32:32;19.70;94.40
35970;DHT22;22448;51.298;6.430;2022-07-06T08:35:19;20.10;93.60
35970;DHT22;22448;51.298;6.430;2022-07-06T08:37:46;21.20;92.60
35970;DHT22;22448;51.298;6.430;2022-07-06T08:40:13;21.90;91.80
35970;DHT22;22448;51.298;6.430;2022-07-06T08:42:41;22.00;90.60
35970;DHT22;22448;51.298;6.430;2022-07-06T08:45:08;21.30;90.20
35970;DHT22;22448;51.298;6.430;2022-07-06T08:47:36;20.90;91.60
35970;DHT22;22448;51.298;6.430;2022-07-06T08:50:05;20.50;91.90
35970;DHT22;22448;51.298;6.430;2022-07-06T08:52:32;20.30;92.50
35970;DHT22;22448;51.298;6.430;2022-07-06T08:55:00;20.60;92.30
35970;DHT22;22448;51.298;6.430;2022-07-06T08:57:28;20.60;92.20
35970;DHT22;22448;51.298;6.430;2022-07-06T08:59:55;20.80;92.30
35970;DHT22;22448;51.298;6.430;2022-07-06T09:02:24;20.80;92.00
35970;DHT22;22448;51.298;6.430;2022-07-06T09:04:55;20.90;91.50
35970;DHT22;22448;51.298;6.430;2022-07-06T09:07:26;20.70;92.40
35970;DHT22;22448;51.298;6.430;2022-07-06T09:10:13;20.30;91.70
35970;DHT22;22448;51.298;6.430;2022-07-06T09:12:41;20.20;91.40
35970;DHT22;22448;51.298;6.430;2022-07-06T09:15:07;20.20;91.90
35970;DHT22;22448;51.298;6.430;2022-07-06T09:17:38;20.20;90.70
35970;DHT22;22448;51.298;6.430;2022-07-06T09:20:11;20.10;90.80
35970;DHT22;22448;51.298;6.430;2022-07-06T09:22:38;20.10;91.70
35970;DHT22;22448;51.298;6.430;2022-07-06T09:25:14;20.40;91.30
35970;DHT22;22448;51.298;6.430;2022-07-06T09:27:46;20.40;91.20
35970;DHT22;22448;51.298;6.430;2022-07-06T09:30:14;20.30;92.00
35970;DHT22;22448;51.298;6.430;2022-07-06T09:32:48;20.10;91.50
35970;DHT22;22448;51.298;6.430;2022-07-06T09:35:27;19.80;91.90
35970;DHT22;22448;51.298;6.430;2022-07-06T09:38:03;19.90;93.50
35970;DHT22;22448;51.298;6.430;2022-07-06T09:40:33;20.40;93.40
35970;DHT22;22448;51.298;6.430;2022-07-06T09:45:44;21.80;92.60
35970;DHT22;22448;51.298;6.430;2022-07-06T09:48:14;22.00;90.60
35970;DHT22;22448;51.298;6.430;2022-07-06T09:50:45;22.10;91.30
35970;DHT22;22448;51.298;6.430;2022-07-06T09:53:13;22.20;90.20
35970;DHT22;22448;51.298;6.430;2022-07-06T09:55:51;21.80;89.00
35970;DHT22;22448;51.298;6.430;2022-07-06T09:58:19;21.90;90.50
35970;DHT22;22448;51.298;6.430;2022-07-06T10:01:06;22.30;90.50
35970;DHT22;22448;51.298;6.430;2022-07-06T10:03:35;22.30;88.30
35970;DHT22;22448;51.298;6.430;2022-07-06T10:06:02;22.20;88.40
35970;DHT22;22448;51.298;6.430;2022-07-06T10:08:30;22.30;86.20
35970;DHT22;22448;51.298;6.430;2022-07-06T10:10:58;22.50;85.30
35970;DHT22;22448;51.298;6.430;2022-07-06T10:13:27;22.30;86.40
35970;DHT22;22448;51.298;6.430;2022-07-06T10:15:55;22.30;87.80
35970;DHT22;22448;51.298;6.430;2022-07-06T10:18:24;22.30;88.00
35970;DHT22;22448;51.298;6.430;2022-07-06T10:20:52;22.40;88.40
35970;DHT22;22448;51.298;6.430;2022-07-06T10:23:20;22.20;84.80
35970;DHT22;22448;51.298;6.430;2022-07-06T10:25:48;22.40;86.00
35970;DHT22;22448;51.298;6.430;2022-07-06T10:28:16;22.40;86.50
35970;DHT22;22448;51.298;6.430;2022-07-06T10:30:44;22.50;87.00
35970;DHT22;22448;51.298;6.430;2022-07-06T10:33:14;22.80;87.40
35970;DHT22;22448;51.298;6.430;2022-07-06T10:35:42;22.80;88.10
35970;DHT22;22448;51.298;6.430;2022-07-06T10:38:10;23.10;88.10
35970;DHT22;22448;51.298;6.430;2022-07-06T10:40:39;23.40;87.70
35970;DHT22;22448;51.298;6.430;2022-07-06T10:43:44;23.40;84.20
35970;DHT22;22448;51.298;6.430;2022-07-06T10:46:14;23.40;84.60
35970;DHT22;22448;51.298;6.430;2022-07-06T10:48:43;23.10;83.30
35970;DHT22;22448;51.298;6.430;2022-07-06T10:51:12;22.60;83.70
35970;DHT22;22448;51.298;6.430;2022-07-06T10:53:40;22.90;86.40
35970;DHT22;22448;51.298;6.430;2022-07-06T10:56:09;23.20;86.80
35970;DHT22;22448;51.298;6.430;2022-07-06T10:58:47;23.20;85.20
35970;DHT22;22448;51.298;6.430;2022-07-06T11:01:15;23.10;86.40
35970;DHT22;22448;51.298;6.430;2022-07-06T11:03:44;23.10;88.00
35970;DHT22;22448;51.298;6.430;2022-07-06T11:06:21;22.90;87.90
35970;DHT22;22448;51.298;6.430;2022-07-06T11:08:58;22.50;87.00
35970;DHT22;22448;51.298;6.430;2022-07-06T11:16:33;22.50;86.30
35970;DHT22;22448;51.298;6.430;2022-07-06T11:19:07;22.40;87.80
35970;DHT22;22448;51.298;6.430;2022-07-06T11:21:38;22.30;89.60
35970;DHT22;22448;51.298;6.430;2022-07-06T11:24:08;22.30;89.20
35970;DHT22;22448;51.298;6.430;2022-07-06T11:26:35;22.30;87.90
35970;DHT22;22448;51.298;6.430;2022-07-06T11:29:08;22.30;86.50
35970;DHT22;22448;51.298;6.430;2022-07-06T11:31:37;22.30;86.60
35970;DHT22;22448;51.298;6.430;2022-07-06T11:34:05;22.30;87.90
35970;DHT22;22448;51.298;6.430;2022-07-06T11:36:33;22.20;84.60
35970;DHT22;22448;51.298;6.430;2022-07-06T11:39:06;22.30;86.20
35970;DHT22;22448;51.298;6.430;2022-07-06T11:41:33;22.30;85.90
35970;DHT22;22448;51.298;6.430;2022-07-06T11:44:01;22.30;87.60
35970;DHT22;22448;51.298;6.430;2022-07-06T11:46:30;22.70;87.20
35970;DHT22;22448;51.298;6.430;2022-07-06T11:49:07;23.00;83.80
35970;DHT22;22448;51.298;6.430;2022-07-06T11:51:40;22.90;85.10
35970;DHT22;22448;51.298;6.430;2022-07-06T11:54:15;22.70;82.50
35970;DHT22;22448;51.298;6.430;2022-07-06T11:59:27;22.20;83.30
35970;DHT22;22448;51.298;6.430;2022-07-06T12:02:05;22.00;85.20
35970;DHT22;22448;51.298;6.430;2022-07-06T12:04:38;22.00;87.50
35970;DHT22;22448;51.298;6.430;2022-07-06T12:07:07;22.20;87.20
35970;DHT22;22448;51.298;6.430;2022-07-06T12:09:37;22.30;87.60
35970;DHT22;22448;51.298;6.430;2022-07-06T12:12:05;22.50;86.70
35970;DHT22;22448;51.298;6.430;2022-07-06T12:14:34;22.60;86.30
35970;DHT22;22448;51.298;6.430;2022-07-06T12:17:06;22.90;86.10
35970;DHT22;22448;51.298;6.430;2022-07-06T12:19:35;23.00;86.00
35970;DHT22;22448;51.298;6.430;2022-07-06T12:22:03;23.00;83.90
35970;DHT22;22448;51.298;6.430;2022-07-06T12:24:32;23.00;85.80
35970;DHT22;22448;51.298;6.430;2022-07-06T12:27:16;23.10;85.00
35970;DHT22;22448;51.298;6.430;2022-07-06T12:29:44;23.30;85.70
35970;DHT22;22448;51.298;6.430;2022-07-06T12:32:16;23.20;83.10
35970;DHT22;22448;51.298;6.430;2022-07-06T12:34:45;23.10;82.40
35970;DHT22;22448;51.298;6.430;2022-07-06T12:37:13;22.90;84.00
35970;DHT22;22448;51.298;6.430;2022-07-06T12:39:47;23.00;85.50
35970;DHT22;22448;51.298;6.430;2022-07-06T12:42:17;23.10;83.50
35970;DHT22;22448;51.298;6.430;2022-07-06T12:44:49;23.10;85.20
35970;DHT22;22448;51.298;6.430;2022-07-06T12:47:21;23.20;85.30
35970;DHT22;22448;51.298;6.430;2022-07-06T12:50:10;23.40;84.30
35970;DHT22;22448;51.298;6.430;2022-07-06T12:52:38;23.20;84.40
35970;DHT22;22448;51.298;6.430;2022-07-06T12:55:07;23.20;83.40
35970;DHT22;22448;51.298;6.430;2022-07-06T12:57:46;23.10;83.10
35970;DHT22;22448;51.298;6.430;2022-07-06T13:00:14;23.20;86.50
35970;DHT22;22448;51.298;6.430;2022-07-06T13:02:45;23.70;87.00
35970;DHT22;22448;51.298;6.430;2022-07-06T13:05:32;23.60;81.60
35970;DHT22;22448;51.298;6.430;2022-07-06T13:08:00;23.80;83.00
35970;DHT22;22448;51.298;6.430;2022-07-06T13:10:28;23.50;81.30
35970;DHT22;22448;51.298;6.430;2022-07-06T13:12:57;23.30;82.10
35970;DHT22;22448;51.298;6.430;2022-07-06T13:15:24;23.20;83.50
35970;DHT22;22448;51.298;6.430;2022-07-06T13:17:52;23.50;83.80
35970;DHT22;22448;51.298;6.430;2022-07-06T13:20:19;23.90;82.00
35970;DHT22;22448;51.298;6.430;2022-07-06T13:22:46;24.30;81.60
35970;DHT22;22448;51.298;6.430;2022-07-06T13:25:13;23.80;78.80
35970;DHT22;22448;51.298;6.430;2022-07-06T13:27:40;23.50;81.50
35970;DHT22;22448;51.298;6.430;2022-07-06T13:30:08;23.60;79.20
35970;DHT22;22448;51.298;6.430;2022-07-06T13:32:35;23.60;81.40
35970;DHT22;22448;51.298;6.430;2022-07-06T13:35:03;23.50;81.30
35970;DHT22;22448;51.298;6.430;2022-07-06T13:37:30;23.10;81.60
35970;DHT22;22448;51.298;6.430;2022-07-06T13:39:57;23.20;85.50
35970;DHT22;22448;51.298;6.430;2022-07-06T13:42:24;23.20;81.60
35970;DHT22;22448;51.298;6.430;2022-07-06T13:44:51;23.40;80.50
35970;DHT22;22448;51.298;6.430;2022-07-06T13:47:18;23.40;82.70
35970;DHT22;22448;51.298;6.430;2022-07-06T13:49:45;23.70;85.50
35970;DHT22;22448;51.298;6.430;2022-07-06T13:52:14;23.90;81.80
35970;DHT22;22448;51.298;6.430;2022-07-06T13:54:41;24.10;80.00
35970;DHT22;22448;51.298;6.430;2022-07-06T13:57:08;24.30;80.00
35970;DHT22;22448;51.298;6.430;2022-07-06T13:59:36;24.10;80.40
35970;DHT22;22448;51.298;6.430;2022-07-06T14:02:03;24.10;84.60
35970;DHT22;22448;51.298;6.430;2022-07-06T14:04:30;24.40;84.60
35970;DHT22;22448;51.298;6.430;2022-07-06T14:06:57;24.80;81.90
35970;DHT22;22448;51.298;6.430;2022-07-06T14:09:25;25.10;82.00
35970;DHT22;22448;51.298;6.430;2022-07-06T14:11:52;25.20;81.00
35970;DHT22;22448;51.298;6.430;2022-07-06T14:14:19;25.20;80.10
35970;DHT22;22448;51.298;6.430;2022-07-06T14:16:46;25.10;81.70
35970;DHT22;22448;51.298;6.430;2022-07-06T14:19:14;24.90;80.80
35970;DHT22;22448;51.298;6.430;2022-07-06T14:21:46;24.70;77.90
35970;DHT22;22448;51.298;6.430;2022-07-06T14:24:14;24.30;79.60
35970;DHT22;22448;51.298;6.430;2022-07-06T14:26:41;24.10;82.20
35970;DHT22;22448;51.298;6.430;2022-07-06T14:29:08;24.00;81.50
35970;DHT22;22448;51.298;6.430;2022-07-06T14:31:35;24.20;82.10
35970;DHT22;22448;51.298;6.430;2022-07-06T14:34:02;23.90;80.20
35970;DHT22;22448;51.298;6.430;2022-07-06T14:36:29;24.00;82.30
35970;DHT22;22448;51.298;6.430;2022-07-06T14:38:56;24.20;81.50
35970;DHT22;22448;51.298;6.430;2022-07-06T14:41:22;24.10;81.40
35970;DHT22;22448;51.298;6.430;2022-07-06T14:43:49;23.70;81.40
35970;DHT22;22448;51.298;6.430;2022-07-06T14:46:16;23.50;82.70
35970;DHT22;22448;51.298;6.430;2022-07-06T14:48:43;23.20;83.70
35970;DHT22;22448;51.298;6.430;2022-07-06T14:51:09;23.10;84.70
35970;DHT22;22448;51.298;6.430;2022-07-06T14:53:36;23.10;84.80
35970;DHT22;22448;51.298;6.430;2022-07-06T14:56:04;23.30;85.40
35970;DHT22;22448;51.298;6.430;2022-07-06T14:58:30;23.30;82.30
35970;DHT22;22448;51.298;6.430;2022-07-06T15:00:57;23.30;83.30
35970;DHT22;22448;51.298;6.430;2022-07-06T15:03:26;23.20;83.50
35970;DHT22;22448;51.298;6.430;2022-07-06T15:05:55;23.20;84.00
35970;DHT22;22448;51.298;6.430;2022-07-06T15:08:21;23.10;82.50
35970;DHT22;22448;51.298;6.430;2022-07-06T15:10:49;22.90;84.40
35970;DHT22;22448;51.298;6.430;2022-07-06T15:13:16;22.90;85.10
35970;DHT22;22448;51.298;6.430;2022-07-06T15:15:43;23.00;83.80
35970;DHT22;22448;51.298;6.430;2022-07-06T15:18:26;23.10;84.90
35970;DHT22;22448;51.298;6.430;2022-07-06T15:20:54;23.40;84.10
35970;DHT22;22448;51.298;6.430;2022-07-06T15:23:20;23.60;83.30
35970;DHT22;22448;51.298;6.430;2022-07-06T15:25:47;23.70;84.10
35970;DHT22;22448;51.298;6.430;2022-07-06T15:28:23;23.80;86.00
35970;DHT22;22448;51.298;6.430;2022-07-06T15:30:52;23.80;81.80
35970;DHT22;22448;51.298;6.430;2022-07-06T15:33:19;23.80;83.50
35970;DHT22;22448;51.298;6.430;2022-07-06T15:35:47;23.70;82.30
35970;DHT22;22448;51.298;6.430;2022-07-06T15:38:14;23.80;83.20
35970;DHT22;22448;51.298;6.430;2022-07-06T15:40:41;23.70;84.80
35970;DHT22;22448;51.298;6.430;2022-07-06T15:43:11;23.80;85.10
35970;DHT22;22448;51.298;6.430;2022-07-06T15:45:39;23.70;86.00
35970;DHT22;22448;51.298;6.430;2022-07-06T15:48:06;23.60;84.00
35970;DHT22;22448;51.298;6.430;2022-07-06T15:50:34;23.60;83.10